world map with PWQ marked

PWQ - Airport

This information may not be accurate or current and is not valid for navigation or flight planning. No warranty of fitness for any purpose is made or implied.

flag of Kazakhstan

Donate via PayPal

Additional information is available on the NEW Great Circle Mapper

Location
City:  Pavlodar, Pavlodar, Kazakhstan
Name:Pavlodar Airport
ICAO / IATA:UASP / PWQ

Details
Type:Airport (Aerodrome, Airfield)
Use:Public/Civil
Latitude:52°11'42"N (52.195000)
Longitude:77°04'26"E (77.073889)
Elevation:410 ft (125 m)
Runways:1
Longest:8202 × 148 ft (2500 × 45 m)

Time
Timezone:UTC+6 (DST+8)
Local Time:

Weather
METAR:UASP  041400Z 05005MPS CAVOK M28/M32 Q1034 R03/450160 NOSIG RMK QFE765/1020
TAF:UASP  (expired)

Related Locations
Nearby:
Farthest:NEMO: 11511 mi / 18525 km
Pacific Ocean [Oceanic Pole of Inaccessibility (Point Nemo)]

Find:

   beyond  
but within

Other Information
Maps:
Sources:

  


 


Great Circle Mapper   Great Circle Mapper
Great Circle Mapper FAQ   Great Circle Mapper FAQ
  Karl's Home Page
KLSē   KLSē Home
   GC on Facebook
Airlines of the World   Airlines of the World
Donate via PayPal


Copyright © 2004-2019, Karl L. Swartz. All rights reserved.
All trademarks mentioned herein belong to their respective owners.

Please see credits for attribution and copyright information.

Karl Swartz <karl@kls2.com>
  Powered by FreeBSD
Valid HTML 4.01!
Labeled with ICRA
hCard Microformat
Geo Microformat